createdAt,value
2019-02-20T00:01:26.303Z,1.10
2019-02-20T00:03:58.833Z,1.20
2019-02-20T00:06:32.279Z,1.20
2019-02-20T00:09:04.681Z,1.20
2019-02-20T00:11:41.659Z,1.00
2019-02-20T00:14:13.307Z,0.90
2019-02-20T00:16:43.543Z,0.90
2019-02-20T00:19:21.667Z,0.90
2019-02-20T00:21:53.791Z,0.90
2019-02-20T00:24:24.511Z,0.90
2019-02-20T00:26:56.442Z,0.80
2019-02-20T00:29:30.151Z,0.80
2019-02-20T00:32:02.533Z,0.80
2019-02-20T00:34:35.168Z,0.80
2019-02-20T00:37:08.940Z,0.90
2019-02-20T00:39:44.558Z,0.80
2019-02-20T00:42:17.674Z,0.80
2019-02-20T00:45:06.307Z,0.70
2019-02-20T00:47:57.886Z,0.70
2019-02-20T00:50:30.950Z,0.70
2019-02-20T00:53:22.968Z,0.80
2019-02-20T00:55:53.098Z,0.80
2019-02-20T00:58:26.469Z,0.80
2019-02-20T01:01:04.823Z,0.70
2019-02-20T01:03:38.303Z,0.70
2019-02-20T01:06:15.469Z,0.70
2019-02-20T01:08:50.597Z,0.70
2019-02-20T01:11:21.911Z,0.80
2019-02-20T01:13:54.142Z,0.90
2019-02-20T01:16:26.959Z,0.90
2019-02-20T01:18:58.187Z,0.90
2019-02-20T01:21:33.559Z,1.00
2019-02-20T01:24:03.770Z,1.20
2019-02-20T01:26:35.312Z,1.30
2019-02-20T01:29:06.205Z,1.50
2019-02-20T01:31:36.446Z,1.60
2019-02-20T01:34:11.205Z,1.70
2019-02-20T01:36:44.407Z,1.80
2019-02-20T01:39:18.939Z,1.80
2019-02-20T01:41:49.147Z,1.90
2019-02-20T01:44:22.264Z,2.00
2019-02-20T01:47:06.176Z,2.00
2019-02-20T01:49:38.191Z,2.10
2019-02-20T01:52:15.237Z,2.10
2019-02-20T01:54:47.744Z,2.10
2019-02-20T01:57:19.453Z,2.10
2019-02-20T02:00:13.044Z,2.00
2019-02-20T02:02:43.155Z,1.90
2019-02-20T02:05:15.869Z,1.80
2019-02-20T02:07:45.203Z,1.80
2019-02-20T02:10:28.496Z,1.80
2019-02-20T02:13:00.389Z,1.90
2019-02-20T02:15:34.871Z,1.80
2019-02-20T02:18:07.794Z,1.80
2019-02-20T02:20:40.578Z,1.80
2019-02-20T02:23:19.670Z,1.80
2019-02-20T02:25:48.527Z,1.80
2019-02-20T02:28:22.589Z,1.90
2019-02-20T02:30:53.648Z,1.90
2019-02-20T02:33:27.169Z,1.80
2019-02-20T02:36:00.273Z,1.90
2019-02-20T02:38:32.903Z,1.90
2019-02-20T02:41:05.609Z,1.90
2019-02-20T02:43:39.195Z,2.00
2019-02-20T02:46:10.137Z,1.90
2019-02-20T02:48:43.588Z,1.90
2019-02-20T02:51:18.081Z,1.90
2019-02-20T02:53:49.579Z,1.90
2019-02-20T02:56:20.609Z,1.90
2019-02-20T02:58:52.218Z,1.80
2019-02-20T03:01:22.418Z,1.70
2019-02-20T03:03:53.225Z,1.60
2019-02-20T03:06:28.017Z,1.50
2019-02-20T03:09:00.709Z,1.40
2019-02-20T03:11:31.477Z,1.30
2019-02-20T03:14:03.447Z,1.30
2019-02-20T03:16:38.753Z,1.20
2019-02-20T03:19:11.801Z,1.10
2019-02-20T03:21:45.283Z,1.00
2019-02-20T03:24:21.792Z,1.00
2019-02-20T03:26:53.263Z,0.90
2019-02-20T03:29:26.221Z,0.90
2019-02-20T03:31:59.194Z,0.90
2019-02-20T03:34:37.364Z,0.90
2019-02-20T03:37:08.721Z,0.90
2019-02-20T03:39:40.151Z,0.80
2019-02-20T03:42:13.339Z,0.80
2019-02-20T03:44:46.671Z,0.70
2019-02-20T03:47:17.570Z,0.80
2019-02-20T03:49:47.789Z,0.90
2019-02-20T03:52:17.940Z,0.90
2019-02-20T03:54:48.174Z,1.00
2019-02-20T03:57:21.832Z,1.10
2019-02-20T03:59:54.446Z,1.20
2019-02-20T04:02:26.779Z,1.20
2019-02-20T04:04:58.906Z,1.30
2019-02-20T04:07:29.968Z,1.30
2019-02-20T04:10:00.486Z,1.50
2019-02-20T04:12:32.246Z,1.50
2019-02-20T04:15:04.666Z,1.60
2019-02-20T04:17:37.925Z,1.70
2019-02-20T04:20:08.178Z,1.70
2019-02-20T04:22:40.678Z,1.80
2019-02-20T04:25:16.400Z,1.80
2019-02-20T04:27:48.458Z,1.80
2019-02-20T04:30:22.434Z,1.90
2019-02-20T04:32:56.144Z,2.00
2019-02-20T04:35:28.315Z,2.00
2019-02-20T04:38:00.416Z,2.20
2019-02-20T04:40:30.618Z,2.20
2019-02-20T04:43:07.241Z,2.40
2019-02-20T04:45:37.431Z,2.40
2019-02-20T04:48:15.138Z,2.50
2019-02-20T04:50:48.770Z,2.40
2019-02-20T04:53:21.303Z,2.50
2019-02-20T04:55:53.474Z,2.60
2019-02-20T04:58:27.450Z,2.50
2019-02-20T05:00:59.293Z,2.60
2019-02-20T05:03:31.037Z,2.60
2019-02-20T05:06:01.330Z,2.60
2019-02-20T05:08:31.978Z,2.60
2019-02-20T05:18:01.049Z,2.40
2019-02-20T05:20:32.414Z,2.40
2019-02-20T05:25:40.525Z,2.40
2019-02-20T05:28:13.214Z,2.40
2019-02-20T05:30:43.414Z,2.40
2019-02-20T05:33:20.164Z,2.30
2019-02-20T05:35:50.665Z,2.30
2019-02-20T05:38:20.832Z,2.20
2019-02-20T05:40:51.012Z,2.30
2019-02-20T05:43:21.851Z,2.40
2019-02-20T05:45:55.427Z,2.40
2019-02-20T05:48:26.590Z,2.50
2019-02-20T05:50:57.657Z,2.50
2019-02-20T05:53:37.090Z,2.50
2019-02-20T05:56:07.836Z,2.60
2019-02-20T05:58:40.935Z,2.60
2019-02-20T06:01:11.463Z,2.70
2019-02-20T06:03:46.304Z,2.80
2019-02-20T06:06:20.876Z,2.80
2019-02-20T06:08:54.673Z,2.90
2019-02-20T06:11:26.971Z,2.90
2019-02-20T06:14:01.495Z,2.90
2019-02-20T06:16:34.357Z,2.90
2019-02-20T06:19:04.871Z,2.90
2019-02-20T06:21:36.273Z,2.90
2019-02-20T06:24:06.436Z,2.90
2019-02-20T06:26:36.642Z,2.70
2019-02-20T06:29:09.529Z,2.70
2019-02-20T06:31:41.240Z,2.80
2019-02-20T06:34:12.350Z,2.80
2019-02-20T06:36:42.463Z,2.90
2019-02-20T06:39:13.749Z,2.90
2019-02-20T06:41:43.884Z,2.90
2019-02-20T06:44:14.048Z,2.90
2019-02-20T06:46:44.189Z,2.80
2019-02-20T06:49:14.342Z,2.70
2019-02-20T06:51:44.693Z,2.70
2019-02-20T06:54:16.250Z,2.60
2019-02-20T06:56:46.995Z,2.40
2019-02-20T06:59:17.324Z,2.50
2019-02-20T07:01:48.356Z,2.40
2019-02-20T07:04:18.635Z,2.50
2019-02-20T07:07:19.884Z,2.60
2019-02-20T07:10:17.809Z,2.50
2019-02-20T07:13:15.126Z,2.50
2019-02-20T07:16:08.802Z,2.60
2019-02-20T07:19:12.221Z,2.80
2019-02-20T07:22:21.039Z,3.00
2019-02-20T07:25:41.017Z,3.10
2019-02-20T07:29:19.721Z,3.20
2019-02-20T07:31:49.884Z,3.30
2019-02-20T07:34:21.172Z,3.50
2019-02-20T07:36:51.285Z,3.70
2019-02-20T07:39:21.414Z,3.80
2019-02-20T07:41:51.573Z,3.80
2019-02-20T07:44:21.717Z,3.90
2019-02-20T07:46:51.873Z,3.90
2019-02-20T07:49:21.992Z,3.90
2019-02-20T07:51:52.595Z,3.90
2019-02-20T07:54:22.762Z,3.80
2019-02-20T07:56:52.878Z,3.80
2019-02-20T07:59:23.811Z,3.90
2019-02-20T08:01:53.943Z,3.80
2019-02-20T08:04:24.064Z,3.80
2019-02-20T08:06:54.186Z,3.70
2019-02-20T08:09:24.321Z,3.90
2019-02-20T08:11:54.838Z,4.10
2019-02-20T08:14:24.999Z,4.30
2019-02-20T08:16:55.123Z,4.50
2019-02-20T08:19:25.276Z,4.60
2019-02-20T08:21:55.458Z,4.80
2019-02-20T08:24:25.585Z,4.90
2019-02-20T08:26:55.704Z,5.10
2019-02-20T08:29:25.840Z,5.30
2019-02-20T08:31:55.952Z,5.40
2019-02-20T08:34:26.847Z,5.50
2019-02-20T08:36:57.427Z,5.60
2019-02-20T08:39:27.649Z,5.60
2019-02-20T08:41:57.810Z,5.70
2019-02-20T08:44:27.999Z,5.80
2019-02-20T08:46:58.185Z,6.00
2019-02-20T08:49:28.320Z,6.10
2019-02-20T08:51:58.502Z,6.30
2019-02-20T08:54:29.055Z,6.30
2019-02-20T08:56:59.238Z,6.40
2019-02-20T08:59:29.389Z,6.40
2019-02-20T09:01:59.521Z,6.50
2019-02-20T09:04:31.326Z,6.50
2019-02-20T09:07:01.863Z,6.60
2019-02-20T09:09:31.975Z,6.60
2019-02-20T09:12:02.152Z,6.50
2019-02-20T09:14:32.337Z,6.60
2019-02-20T09:17:02.468Z,6.60
2019-02-20T09:19:32.675Z,6.60
2019-02-20T09:22:03.739Z,6.50
2019-02-20T09:24:33.879Z,6.50
2019-02-20T09:27:03.995Z,6.40
2019-02-20T09:29:34.121Z,6.50
2019-02-20T09:32:04.365Z,6.50
2019-02-20T09:34:34.496Z,6.40
2019-02-20T09:37:04.615Z,6.40
2019-02-20T09:39:38.639Z,6.50
2019-02-20T09:42:13.802Z,6.60
2019-02-20T09:44:46.485Z,6.70
2019-02-20T09:47:22.042Z,6.70
2019-02-20T09:49:52.219Z,6.80
2019-02-20T09:52:22.383Z,6.90
2019-02-20T09:54:52.569Z,7.20
2019-02-20T09:57:22.722Z,7.30
2019-02-20T09:59:52.832Z,7.40
2019-02-20T10:02:23.511Z,7.60
2019-02-20T10:04:53.647Z,7.80
2019-02-20T10:07:23.757Z,7.70
2019-02-20T10:09:53.879Z,7.80
2019-02-20T10:12:24.019Z,7.70
2019-02-20T10:14:54.124Z,7.80
2019-02-20T10:17:25.214Z,7.90
2019-02-20T10:19:56.643Z,7.90
2019-02-20T10:22:26.779Z,8.10
2019-02-20T10:24:56.968Z,8.20
2019-02-20T10:27:27.240Z,8.40
2019-02-20T10:29:57.514Z,8.60
2019-02-20T10:32:27.668Z,9.00
2019-02-20T10:34:57.806Z,9.50
2019-02-20T10:37:28.716Z,9.90
2019-02-20T10:39:58.894Z,10.10
2019-02-20T10:42:29.231Z,10.30
2019-02-20T10:44:59.416Z,10.40
2019-02-20T10:47:31.248Z,10.30
2019-02-20T10:50:01.406Z,10.30
2019-02-20T10:52:32.356Z,10.40
2019-02-20T10:55:02.613Z,10.30
2019-02-20T10:57:32.790Z,10.20
2019-02-20T11:00:02.976Z,10.20
2019-02-20T11:02:33.174Z,10.10
2019-02-20T11:05:03.335Z,9.90
2019-02-20T11:07:33.459Z,10.00
2019-02-20T11:10:03.613Z,10.00
2019-02-20T11:12:34.088Z,10.10
2019-02-20T11:15:05.132Z,10.30
2019-02-20T11:17:37.395Z,10.50
2019-02-20T11:20:08.040Z,10.60
2019-02-20T11:22:38.275Z,10.90
2019-02-20T11:25:09.510Z,11.10
2019-02-20T11:27:39.742Z,11.30
2019-02-20T11:30:13.790Z,11.60
2019-02-20T11:32:43.990Z,11.70
2019-02-20T11:35:14.139Z,11.80
2019-02-20T11:37:44.311Z,11.80
2019-02-20T11:40:15.199Z,11.80
2019-02-20T11:42:45.338Z,12.00
2019-02-20T11:45:16.666Z,12.10
2019-02-20T11:47:46.973Z,12.20
2019-02-20T11:50:18.958Z,12.40
2019-02-20T11:52:49.114Z,12.50
2019-02-20T11:55:19.217Z,12.60
2019-02-20T11:57:49.301Z,12.50
2019-02-20T12:00:19.474Z,12.50
2019-02-20T12:02:49.768Z,12.40
2019-02-20T12:05:19.867Z,12.40
2019-02-20T12:07:50.011Z,12.20
2019-02-20T12:10:20.631Z,12.30
2019-02-20T12:12:50.766Z,12.20
2019-02-20T12:15:21.115Z,12.30
2019-02-20T12:17:51.322Z,12.30
2019-02-20T12:20:21.654Z,12.30
2019-02-20T12:22:51.882Z,12.30
2019-02-20T12:25:22.114Z,12.30
2019-02-20T12:27:52.350Z,12.10
2019-02-20T12:30:22.662Z,12.10
2019-02-20T12:32:52.967Z,12.00
2019-02-20T12:35:23.246Z,12.00
2019-02-20T12:37:53.440Z,12.00
2019-02-20T12:40:24.185Z,12.00
2019-02-20T12:42:54.399Z,12.10
2019-02-20T12:45:24.713Z,12.10
2019-02-20T12:47:55.376Z,12.10
2019-02-20T12:50:25.698Z,12.00
2019-02-20T12:52:55.984Z,12.00
2019-02-20T12:55:26.486Z,12.00
2019-02-20T12:57:57.160Z,12.10
2019-02-20T13:00:27.493Z,12.10
2019-02-20T13:02:57.757Z,12.20
2019-02-20T13:05:27.985Z,12.20
2019-02-20T13:07:58.291Z,12.10
2019-02-20T13:10:28.454Z,12.10
2019-02-20T13:12:58.548Z,12.00
2019-02-20T13:15:29.087Z,12.10
2019-02-20T13:17:59.215Z,12.20
2019-02-20T13:20:29.426Z,12.30
2019-02-20T13:23:00.050Z,12.50
2019-02-20T13:25:30.302Z,12.70
2019-02-20T13:28:00.610Z,12.70
2019-02-20T13:30:30.917Z,12.80
2019-02-20T13:33:02.482Z,12.90
2019-02-20T13:35:33.134Z,12.90
2019-02-20T13:38:03.340Z,12.80
2019-02-20T13:40:33.555Z,12.80
2019-02-20T13:43:05.598Z,12.70
2019-02-20T13:45:36.033Z,12.60
2019-02-20T13:48:06.999Z,12.60
2019-02-20T13:50:37.260Z,12.50
2019-02-20T13:53:08.381Z,12.50
2019-02-20T13:55:38.619Z,12.50
2019-02-20T13:58:08.901Z,12.50
2019-02-20T14:00:39.108Z,12.50
2019-02-20T14:03:09.411Z,12.80
2019-02-20T14:05:39.566Z,13.20
2019-02-20T14:08:09.756Z,13.40
2019-02-20T14:10:39.982Z,13.90
2019-02-20T14:13:11.750Z,14.30
2019-02-20T14:15:41.995Z,14.50
2019-02-20T14:18:12.704Z,14.50
2019-02-20T14:20:42.894Z,14.50
2019-02-20T14:23:13.057Z,14.70
2019-02-20T14:25:44.432Z,15.00
2019-02-20T14:28:16.170Z,15.60
2019-02-20T14:30:46.756Z,16.30
2019-02-20T14:33:19.288Z,17.10
2019-02-20T14:35:49.403Z,17.50
2019-02-20T14:38:19.981Z,18.00
2019-02-20T14:40:52.851Z,17.80
2019-02-20T14:43:26.406Z,17.30
2019-02-20T14:45:57.912Z,16.90
2019-02-20T14:48:28.072Z,16.20
2019-02-20T14:51:00.032Z,15.80
2019-02-20T14:53:32.789Z,15.50
2019-02-20T14:56:03.029Z,15.20
2019-02-20T14:58:33.369Z,15.10
2019-02-20T15:01:03.806Z,15.00
2019-02-20T15:03:34.056Z,15.00
2019-02-20T15:06:04.292Z,14.90
2019-02-20T15:08:34.547Z,14.70
2019-02-20T15:11:05.340Z,14.60
2019-02-20T15:13:36.400Z,14.20
2019-02-20T15:16:09.139Z,14.10
2019-02-20T15:18:39.765Z,13.90
2019-02-20T15:21:10.009Z,13.90
2019-02-20T15:23:40.150Z,13.90
2019-02-20T15:26:10.917Z,13.80
2019-02-20T15:28:41.809Z,13.80
2019-02-20T15:31:13.180Z,13.70
2019-02-20T15:33:43.454Z,13.70
2019-02-20T15:36:15.554Z,13.70
2019-02-20T15:38:47.962Z,13.80
2019-02-20T15:41:19.082Z,13.80
2019-02-20T15:43:51.487Z,13.70
2019-02-20T15:46:21.754Z,13.80
2019-02-20T15:48:51.936Z,13.70
2019-02-20T15:51:24.400Z,13.60
2019-02-20T15:53:56.901Z,13.40
2019-02-20T15:56:28.519Z,13.20
2019-02-20T15:58:58.687Z,13.00
2019-02-20T16:01:28.885Z,12.80
2019-02-20T16:04:00.051Z,12.70
2019-02-20T16:06:31.331Z,12.50
2019-02-20T16:09:09.464Z,12.30
2019-02-20T16:11:36.209Z,12.10
2019-02-20T16:14:07.584Z,11.90
2019-02-20T16:16:40.627Z,11.70
2019-02-20T16:19:10.293Z,11.60
2019-02-20T16:21:42.828Z,11.20
2019-02-20T16:24:13.339Z,10.80
2019-02-20T16:26:43.534Z,10.60
2019-02-20T16:29:14.055Z,10.30
2019-02-20T16:31:45.992Z,10.20
2019-02-20T16:34:18.607Z,10.00
2019-02-20T16:36:49.667Z,9.80
2019-02-20T16:39:25.193Z,9.60
2019-02-20T16:41:57.511Z,9.40
2019-02-20T16:44:29.839Z,9.00
2019-02-20T16:47:02.943Z,8.80
2019-02-20T16:49:34.867Z,8.70
2019-02-20T16:52:05.192Z,8.30
2019-02-20T16:54:35.451Z,8.10
2019-02-20T16:57:06.081Z,8.00
2019-02-20T17:00:21.628Z,7.90
2019-02-20T17:02:54.501Z,7.70
2019-02-20T17:05:24.697Z,7.40
2019-02-20T17:07:55.616Z,7.40
2019-02-20T17:10:25.954Z,7.40
2019-02-20T17:12:56.345Z,7.30
2019-02-20T17:15:27.762Z,7.30
2019-02-20T17:17:57.966Z,7.00
2019-02-20T17:20:30.530Z,6.90
2019-02-20T17:23:00.767Z,6.90
2019-02-20T17:25:31.283Z,6.70
2019-02-20T17:28:05.706Z,6.60
2019-02-20T17:30:33.316Z,6.50
2019-02-20T17:33:04.585Z,6.40
2019-02-20T17:35:34.824Z,6.50
2019-02-20T17:38:05.333Z,6.40
2019-02-20T17:40:36.843Z,6.10
2019-02-20T17:43:07.072Z,6.00
2019-02-20T17:45:37.299Z,6.00
2019-02-20T17:48:08.428Z,5.90
2019-02-20T17:50:38.690Z,6.00
2019-02-20T17:53:08.995Z,5.90
2019-02-20T17:55:39.725Z,5.90
2019-02-20T17:58:15.260Z,5.80
2019-02-20T18:00:42.273Z,5.90
2019-02-20T18:03:12.532Z,5.70
2019-02-20T18:05:43.060Z,5.50
2019-02-20T18:08:14.205Z,5.40
2019-02-20T18:10:45.873Z,5.20
2019-02-20T18:13:16.187Z,5.10
2019-02-20T18:15:47.609Z,5.30
2019-02-20T18:18:18.220Z,5.30
2019-02-20T18:20:48.697Z,5.30
2019-02-20T18:23:21.559Z,5.20
2019-02-20T18:25:52.610Z,4.90
2019-02-20T18:28:24.751Z,4.80
2019-02-20T18:30:54.747Z,4.80
2019-02-20T18:33:25.950Z,4.80
2019-02-20T18:35:58.806Z,4.70
2019-02-20T18:38:31.846Z,4.80
2019-02-20T18:41:05.316Z,4.80
2019-02-20T18:43:35.779Z,4.80
2019-02-20T18:46:07.686Z,4.70
2019-02-20T18:48:37.909Z,4.60
2019-02-20T18:51:09.321Z,4.50
2019-02-20T18:53:40.620Z,4.40
2019-02-20T18:56:11.169Z,4.30
2019-02-20T18:58:41.310Z,4.20
2019-02-20T19:01:13.355Z,4.10
2019-02-20T19:03:46.492Z,4.00
2019-02-20T19:06:17.510Z,4.00
2019-02-20T19:08:56.346Z,4.00
2019-02-20T19:12:07.758Z,4.10
2019-02-20T19:15:34.856Z,4.10
2019-02-20T19:19:12.287Z,3.90
2019-02-20T19:22:15.698Z,3.40
2019-02-20T19:25:29.506Z,3.50
2019-02-20T19:28:44.303Z,3.40
2019-02-20T19:31:37.442Z,3.30
2019-02-20T19:34:56.117Z,3.30
2019-02-20T19:38:16.347Z,3.30
2019-02-20T19:41:42.077Z,3.30
2019-02-20T19:45:02.180Z,3.20
2019-02-20T19:48:21.546Z,3.20
2019-02-20T19:51:07.405Z,3.10
2019-02-20T19:54:36.794Z,3.10
2019-02-20T19:57:51.795Z,3.00
2019-02-20T20:01:27.919Z,3.00
2019-02-20T20:04:37.368Z,3.10
2019-02-20T20:07:53.929Z,3.20
2019-02-20T20:11:21.353Z,3.10
2019-02-20T20:14:26.979Z,2.70
2019-02-20T20:17:36.856Z,2.60
2019-02-20T20:20:16.264Z,2.70
2019-02-20T20:23:29.856Z,2.60
2019-02-20T20:26:25.993Z,2.50
2019-02-20T20:29:49.452Z,2.40
2019-02-20T20:32:55.227Z,2.50
2019-02-20T20:35:42.935Z,2.40
2019-02-20T20:38:39.086Z,2.40
2019-02-20T20:41:47.435Z,2.40
2019-02-20T20:44:31.979Z,2.40
2019-02-20T20:47:43.967Z,2.50
2019-02-20T20:50:49.864Z,2.60
2019-02-20T20:53:51.510Z,2.80
2019-02-20T20:57:07.412Z,2.90
2019-02-20T21:00:10.135Z,3.00
2019-02-20T21:02:55.625Z,3.20
2019-02-20T21:05:56.369Z,3.30
2019-02-20T21:08:58.512Z,3.50
2019-02-20T21:12:15.464Z,3.60
2019-02-20T21:15:36.547Z,3.60
2019-02-20T21:18:23.968Z,3.70
2019-02-20T21:21:25.163Z,3.70
2019-02-20T21:24:26.982Z,3.60
2019-02-20T21:27:32.044Z,3.50
2019-02-20T21:30:43.544Z,3.50
2019-02-20T21:34:06.066Z,3.50
2019-02-20T21:37:15.839Z,3.40
2019-02-20T21:40:26.584Z,3.20
2019-02-20T21:43:34.683Z,3.00
2019-02-20T21:46:29.899Z,2.90
2019-02-20T21:49:32.292Z,2.90
2019-02-20T21:53:01.387Z,2.80
2019-02-20T21:55:57.668Z,2.70
2019-02-20T21:58:45.115Z,2.80
2019-02-20T22:01:37.296Z,3.00
2019-02-20T22:04:43.410Z,3.00
2019-02-20T22:07:51.186Z,3.00
2019-02-20T22:11:11.221Z,2.80
2019-02-20T22:14:45.048Z,2.70
2019-02-20T22:17:46.724Z,2.70
2019-02-20T22:21:08.003Z,2.60
2019-02-20T22:23:55.161Z,2.60
2019-02-20T22:27:11.241Z,2.60
2019-02-20T22:30:43.570Z,2.60
2019-02-20T22:33:44.824Z,2.50
2019-02-20T22:36:51.011Z,2.30
2019-02-20T22:39:42.556Z,2.30
2019-02-20T22:42:43.184Z,2.20
2019-02-20T22:45:46.352Z,2.20
2019-02-20T22:49:03.378Z,2.30
2019-02-20T22:52:16.487Z,2.20
2019-02-20T22:55:32.477Z,2.00
2019-02-20T22:58:49.999Z,1.80
2019-02-20T23:01:59.944Z,1.70
2019-02-20T23:05:03.678Z,1.60
2019-02-20T23:07:47.818Z,1.50
2019-02-20T23:11:07.146Z,1.50
2019-02-20T23:14:19.519Z,1.50
2019-02-20T23:16:51.441Z,1.40
2019-02-20T23:19:24.061Z,1.40
2019-02-20T23:21:54.362Z,1.40
2019-02-20T23:24:24.714Z,1.40
2019-02-20T23:26:56.360Z,1.40
2019-02-20T23:29:26.499Z,1.50
2019-02-20T23:32:02.886Z,1.50
2019-02-20T23:34:32.994Z,1.50
2019-02-20T23:37:05.803Z,1.30
2019-02-20T23:39:38.182Z,1.30
2019-02-20T23:42:15.258Z,1.20
2019-02-20T23:44:45.492Z,1.10
2019-02-20T23:47:15.959Z,1.00
2019-02-20T23:49:47.394Z,0.90
2019-02-20T23:52:17.722Z,1.00
2019-02-20T23:54:50.630Z,1.00
2019-02-20T23:57:22.878Z,0.90
2019-02-20T23:59:53.523Z,0.90
